Terminal Aerodrome Forecast
Issued by NWS Cleveland, OH

Home | Current Version | Previous Version | Graphics & Text | Print | Product List | Glossary Off
Versions: 1 2 3 4 5 6 7 8 9 10 11 12 13 14

201
FTUS41 KCLE 071141
TAFTOL
TAF
KTOL 071141Z 0712/0812 25012KT P6SM SCT025 BKN150
      TEMPO 0712/0715 BKN025
     FM071800 25012G18KT P6SM SCT035 OVC100
     FM080200 26012KT P6SM OVC025=

USA.gov is the U.S. government's official web portal to all federal, state and local government web resources and services.